sensor_id;sensor_type;location;lat;lon;timestamp;P1;durP1;ratioP1;P2;durP2;ratioP2
64543;SDS011;50936;51.660;5.616;2023-05-28T00:01:17;19.75;;;7.07;;
64543;SDS011;50936;51.660;5.616;2023-05-28T00:03:44;15.75;;;6.55;;
64543;SDS011;50936;51.660;5.616;2023-05-28T00:06:11;13.18;;;7.47;;
64543;SDS011;50936;51.660;5.616;2023-05-28T00:08:38;13.13;;;6.85;;
64543;SDS011;50936;51.660;5.616;2023-05-28T00:11:05;21.00;;;7.53;;
64543;SDS011;50936;51.660;5.616;2023-05-28T00:13:33;19.85;;;7.30;;
64543;SDS011;50936;51.660;5.616;2023-05-28T00:16:00;13.50;;;6.28;;
64543;SDS011;50936;51.660;5.616;2023-05-28T00:18:27;15.70;;;6.55;;
64543;SDS011;50936;51.660;5.616;2023-05-28T00:20:54;17.80;;;7.25;;
64543;SDS011;50936;51.660;5.616;2023-05-28T00:23:21;14.40;;;6.70;;
64543;SDS011;50936;51.660;5.616;2023-05-28T00:25:49;14.73;;;6.72;;
64543;SDS011;50936;51.660;5.616;2023-05-28T00:28:16;17.08;;;7.47;;
64543;SDS011;50936;51.660;5.616;2023-05-28T00:30:43;14.07;;;6.43;;
64543;SDS011;50936;51.660;5.616;2023-05-28T00:33:10;14.25;;;7.00;;
64543;SDS011;50936;51.660;5.616;2023-05-28T00:35:37;16.85;;;7.30;;
64543;SDS011;50936;51.660;5.616;2023-05-28T00:38:05;19.55;;;7.20;;
64543;SDS011;50936;51.660;5.616;2023-05-28T00:40:32;13.65;;;7.38;;
64543;SDS011;50936;51.660;5.616;2023-05-28T00:42:59;23.17;;;7.97;;
64543;SDS011;50936;51.660;5.616;2023-05-28T00:45:26;16.50;;;8.15;;
64543;SDS011;50936;51.660;5.616;2023-05-28T00:47:53;15.57;;;7.40;;
64543;SDS011;50936;51.660;5.616;2023-05-28T00:50:21;18.20;;;7.93;;
64543;SDS011;50936;51.660;5.616;2023-05-28T00:52:48;17.73;;;8.02;;
64543;SDS011;50936;51.660;5.616;2023-05-28T00:55:18;21.58;;;8.70;;
64543;SDS011;50936;51.660;5.616;2023-05-28T00:57:46;20.83;;;8.00;;
64543;SDS011;50936;51.660;5.616;2023-05-28T01:00:19;14.48;;;7.35;;
64543;SDS011;50936;51.660;5.616;2023-05-28T01:02:56;14.75;;;8.10;;
64543;SDS011;50936;51.660;5.616;2023-05-28T01:05:24;15.52;;;7.45;;
64543;SDS011;50936;51.660;5.616;2023-05-28T01:07:51;17.17;;;7.43;;
64543;SDS011;50936;51.660;5.616;2023-05-28T01:10:19;20.33;;;7.55;;
64543;SDS011;50936;51.660;5.616;2023-05-28T01:12:47;14.27;;;7.40;;
64543;SDS011;50936;51.660;5.616;2023-05-28T01:15:16;14.23;;;7.05;;
64543;SDS011;50936;51.660;5.616;2023-05-28T01:17:44;15.93;;;7.20;;
64543;SDS011;50936;51.660;5.616;2023-05-28T01:20:13;18.52;;;7.55;;
64543;SDS011;50936;51.660;5.616;2023-05-28T01:22:44;19.90;;;6.93;;
64543;SDS011;50936;51.660;5.616;2023-05-28T01:25:27;19.63;;;8.18;;
64543;SDS011;50936;51.660;5.616;2023-05-28T01:27:57;15.30;;;6.82;;
64543;SDS011;50936;51.660;5.616;2023-05-28T01:30:28;16.83;;;7.18;;
64543;SDS011;50936;51.660;5.616;2023-05-28T01:32:55;13.45;;;6.90;;
64543;SDS011;50936;51.660;5.616;2023-05-28T01:35:23;17.23;;;6.15;;
64543;SDS011;50936;51.660;5.616;2023-05-28T01:37:51;15.57;;;7.45;;
64543;SDS011;50936;51.660;5.616;2023-05-28T01:40:24;15.68;;;6.97;;
64543;SDS011;50936;51.660;5.616;2023-05-28T01:42:54;15.40;;;6.22;;
64543;SDS011;50936;51.660;5.616;2023-05-28T01:45:23;12.23;;;5.70;;
64543;SDS011;50936;51.660;5.616;2023-05-28T01:47:52;13.52;;;7.22;;
64543;SDS011;50936;51.660;5.616;2023-05-28T01:50:21;17.83;;;7.05;;
64543;SDS011;50936;51.660;5.616;2023-05-28T01:52:49;17.00;;;6.93;;
64543;SDS011;50936;51.660;5.616;2023-05-28T01:55:16;15.73;;;6.28;;
64543;SDS011;50936;51.660;5.616;2023-05-28T01:57:44;14.88;;;6.60;;
64543;SDS011;50936;51.660;5.616;2023-05-28T02:00:12;15.48;;;6.50;;
64543;SDS011;50936;51.660;5.616;2023-05-28T02:02:41;17.50;;;6.60;;
64543;SDS011;50936;51.660;5.616;2023-05-28T02:05:12;12.95;;;6.10;;
64543;SDS011;50936;51.660;5.616;2023-05-28T02:07:39;13.95;;;6.40;;
64543;SDS011;50936;51.660;5.616;2023-05-28T02:10:06;13.82;;;5.97;;
64543;SDS011;50936;51.660;5.616;2023-05-28T02:12:35;18.77;;;6.88;;
64543;SDS011;50936;51.660;5.616;2023-05-28T02:15:02;16.48;;;6.32;;
64543;SDS011;50936;51.660;5.616;2023-05-28T02:17:30;15.52;;;6.55;;
64543;SDS011;50936;51.660;5.616;2023-05-28T02:19:57;14.15;;;6.22;;
64543;SDS011;50936;51.660;5.616;2023-05-28T02:22:26;12.85;;;6.55;;
64543;SDS011;50936;51.660;5.616;2023-05-28T02:24:53;17.88;;;6.47;;
64543;SDS011;50936;51.660;5.616;2023-05-28T02:27:20;14.98;;;6.40;;
64543;SDS011;50936;51.660;5.616;2023-05-28T02:29:48;16.30;;;6.80;;
64543;SDS011;50936;51.660;5.616;2023-05-28T02:32:15;13.15;;;6.57;;
64543;SDS011;50936;51.660;5.616;2023-05-28T02:34:42;14.73;;;5.43;;
64543;SDS011;50936;51.660;5.616;2023-05-28T02:37:10;18.83;;;7.32;;
64543;SDS011;50936;51.660;5.616;2023-05-28T02:39:37;12.98;;;6.47;;
64543;SDS011;50936;51.660;5.616;2023-05-28T02:42:04;18.13;;;7.57;;
64543;SDS011;50936;51.660;5.616;2023-05-28T02:44:31;19.45;;;6.72;;
64543;SDS011;50936;51.660;5.616;2023-05-28T02:46:58;13.73;;;6.07;;
64543;SDS011;50936;51.660;5.616;2023-05-28T02:49:26;19.63;;;6.50;;
64543;SDS011;50936;51.660;5.616;2023-05-28T02:51:53;15.60;;;6.50;;
64543;SDS011;50936;51.660;5.616;2023-05-28T02:54:29;14.40;;;5.78;;
64543;SDS011;50936;51.660;5.616;2023-05-28T02:56:56;15.50;;;6.72;;
64543;SDS011;50936;51.660;5.616;2023-05-28T02:59:24;16.90;;;6.75;;
64543;SDS011;50936;51.660;5.616;2023-05-28T03:01:53;20.40;;;6.35;;
64543;SDS011;50936;51.660;5.616;2023-05-28T03:04:19;15.57;;;7.38;;
64543;SDS011;50936;51.660;5.616;2023-05-28T03:06:47;17.20;;;7.30;;
64543;SDS011;50936;51.660;5.616;2023-05-28T03:09:14;15.80;;;7.10;;
64543;SDS011;50936;51.660;5.616;2023-05-28T03:11:42;16.65;;;6.70;;
64543;SDS011;50936;51.660;5.616;2023-05-28T03:14:10;16.27;;;6.82;;
64543;SDS011;50936;51.660;5.616;2023-05-28T03:16:37;16.27;;;6.60;;
64543;SDS011;50936;51.660;5.616;2023-05-28T03:19:15;15.35;;;6.50;;
64543;SDS011;50936;51.660;5.616;2023-05-28T03:21:42;18.98;;;6.82;;
64543;SDS011;50936;51.660;5.616;2023-05-28T03:24:10;14.27;;;6.72;;
64543;SDS011;50936;51.660;5.616;2023-05-28T03:26:43;15.68;;;7.22;;
64543;SDS011;50936;51.660;5.616;2023-05-28T03:29:18;17.10;;;6.82;;
64543;SDS011;50936;51.660;5.616;2023-05-28T03:31:50;17.50;;;6.68;;
64543;SDS011;50936;51.660;5.616;2023-05-28T03:34:20;19.98;;;7.18;;
64543;SDS011;50936;51.660;5.616;2023-05-28T03:36:47;15.43;;;6.65;;
64543;SDS011;50936;51.660;5.616;2023-05-28T03:39:16;15.48;;;7.35;;
64543;SDS011;50936;51.660;5.616;2023-05-28T03:41:44;16.92;;;7.28;;
64543;SDS011;50936;51.660;5.616;2023-05-28T03:44:12;17.15;;;6.28;;
64543;SDS011;50936;51.660;5.616;2023-05-28T03:46:40;14.65;;;7.93;;
64543;SDS011;50936;51.660;5.616;2023-05-28T03:49:07;14.50;;;6.82;;
64543;SDS011;50936;51.660;5.616;2023-05-28T03:51:34;16.33;;;7.63;;
64543;SDS011;50936;51.660;5.616;2023-05-28T03:54:02;18.45;;;7.45;;
64543;SDS011;50936;51.660;5.616;2023-05-28T03:56:29;13.48;;;6.63;;
64543;SDS011;50936;51.660;5.616;2023-05-28T03:58:57;19.35;;;7.43;;
64543;SDS011;50936;51.660;5.616;2023-05-28T04:01:23;16.95;;;6.57;;
64543;SDS011;50936;51.660;5.616;2023-05-28T04:03:53;18.08;;;6.82;;
64543;SDS011;50936;51.660;5.616;2023-05-28T04:06:22;20.38;;;7.95;;
64543;SDS011;50936;51.660;5.616;2023-05-28T04:08:50;16.30;;;6.63;;
64543;SDS011;50936;51.660;5.616;2023-05-28T04:11:18;16.20;;;6.38;;
64543;SDS011;50936;51.660;5.616;2023-05-28T04:13:49;19.02;;;7.05;;
64543;SDS011;50936;51.660;5.616;2023-05-28T04:16:16;21.17;;;7.30;;
64543;SDS011;50936;51.660;5.616;2023-05-28T04:18:43;17.77;;;7.15;;
64543;SDS011;50936;51.660;5.616;2023-05-28T04:21:10;23.50;;;7.35;;
64543;SDS011;50936;51.660;5.616;2023-05-28T04:23:39;19.40;;;8.18;;
64543;SDS011;50936;51.660;5.616;2023-05-28T04:26:06;21.20;;;7.63;;
64543;SDS011;50936;51.660;5.616;2023-05-28T04:28:34;19.08;;;7.85;;
64543;SDS011;50936;51.660;5.616;2023-05-28T04:31:01;21.75;;;7.63;;
64543;SDS011;50936;51.660;5.616;2023-05-28T04:33:29;18.40;;;6.70;;
64543;SDS011;50936;51.660;5.616;2023-05-28T04:35:57;13.90;;;7.55;;
64543;SDS011;50936;51.660;5.616;2023-05-28T04:38:26;17.23;;;6.63;;
64543;SDS011;50936;51.660;5.616;2023-05-28T04:40:58;18.38;;;7.47;;
64543;SDS011;50936;51.660;5.616;2023-05-28T04:43:26;15.45;;;7.18;;
64543;SDS011;50936;51.660;5.616;2023-05-28T04:45:56;18.55;;;7.30;;
64543;SDS011;50936;51.660;5.616;2023-05-28T04:48:25;18.65;;;7.28;;
64543;SDS011;50936;51.660;5.616;2023-05-28T04:50:52;22.08;;;8.00;;
64543;SDS011;50936;51.660;5.616;2023-05-28T04:53:20;19.00;;;7.53;;
64543;SDS011;50936;51.660;5.616;2023-05-28T04:55:47;18.40;;;8.10;;
64543;SDS011;50936;51.660;5.616;2023-05-28T04:58:15;21.20;;;6.90;;
64543;SDS011;50936;51.660;5.616;2023-05-28T05:00:42;18.30;;;7.75;;
64543;SDS011;50936;51.660;5.616;2023-05-28T05:03:09;21.25;;;7.68;;
64543;SDS011;50936;51.660;5.616;2023-05-28T05:05:37;19.98;;;7.53;;
64543;SDS011;50936;51.660;5.616;2023-05-28T05:08:06;18.27;;;7.35;;
64543;SDS011;50936;51.660;5.616;2023-05-28T05:10:35;21.08;;;8.05;;
64543;SDS011;50936;51.660;5.616;2023-05-28T05:13:02;19.58;;;7.47;;
64543;SDS011;50936;51.660;5.616;2023-05-28T05:15:29;19.25;;;6.95;;
64543;SDS011;50936;51.660;5.616;2023-05-28T05:17:57;18.40;;;7.53;;
64543;SDS011;50936;51.660;5.616;2023-05-28T05:20:26;15.38;;;6.68;;
64543;SDS011;50936;51.660;5.616;2023-05-28T05:22:54;16.38;;;7.28;;
64543;SDS011;50936;51.660;5.616;2023-05-28T05:25:21;19.17;;;7.68;;
64543;SDS011;50936;51.660;5.616;2023-05-28T05:27:51;19.50;;;7.25;;
64543;SDS011;50936;51.660;5.616;2023-05-28T05:30:18;19.92;;;7.97;;
64543;SDS011;50936;51.660;5.616;2023-05-28T05:32:45;18.15;;;7.28;;
64543;SDS011;50936;51.660;5.616;2023-05-28T05:35:13;18.65;;;7.68;;
64543;SDS011;50936;51.660;5.616;2023-05-28T05:37:43;20.25;;;7.97;;
64543;SDS011;50936;51.660;5.616;2023-05-28T05:40:49;17.70;;;8.00;;
64543;SDS011;50936;51.660;5.616;2023-05-28T05:43:28;15.65;;;7.22;;
64543;SDS011;50936;51.660;5.616;2023-05-28T05:45:55;17.30;;;8.23;;
64543;SDS011;50936;51.660;5.616;2023-05-28T05:48:25;15.77;;;6.72;;
64543;SDS011;50936;51.660;5.616;2023-05-28T05:50:54;17.45;;;7.95;;
64543;SDS011;50936;51.660;5.616;2023-05-28T05:53:22;21.58;;;8.00;;
64543;SDS011;50936;51.660;5.616;2023-05-28T05:55:49;17.77;;;7.00;;
64543;SDS011;50936;51.660;5.616;2023-05-28T05:58:17;17.33;;;7.78;;
64543;SDS011;50936;51.660;5.616;2023-05-28T06:00:44;23.90;;;8.55;;
64543;SDS011;50936;51.660;5.616;2023-05-28T06:03:13;19.05;;;6.90;;
64543;SDS011;50936;51.660;5.616;2023-05-28T06:05:59;18.75;;;6.65;;
64543;SDS011;50936;51.660;5.616;2023-05-28T06:08:52;21.33;;;7.63;;
64543;SDS011;50936;51.660;5.616;2023-05-28T06:11:42;19.30;;;7.53;;
64543;SDS011;50936;51.660;5.616;2023-05-28T06:14:09;16.75;;;6.90;;
64543;SDS011;50936;51.660;5.616;2023-05-28T06:16:36;20.17;;;6.78;;
64543;SDS011;50936;51.660;5.616;2023-05-28T06:19:03;17.17;;;6.80;;
64543;SDS011;50936;51.660;5.616;2023-05-28T06:21:31;18.55;;;6.32;;
64543;SDS011;50936;51.660;5.616;2023-05-28T06:23:59;17.08;;;6.57;;
64543;SDS011;50936;51.660;5.616;2023-05-28T06:26:26;13.77;;;6.55;;
64543;SDS011;50936;51.660;5.616;2023-05-28T06:28:54;12.77;;;6.10;;
64543;SDS011;50936;51.660;5.616;2023-05-28T06:31:22;14.68;;;5.57;;
64543;SDS011;50936;51.660;5.616;2023-05-28T06:33:50;15.23;;;6.18;;
64543;SDS011;50936;51.660;5.616;2023-05-28T06:36:17;15.25;;;6.72;;
64543;SDS011;50936;51.660;5.616;2023-05-28T06:38:44;14.55;;;6.50;;
64543;SDS011;50936;51.660;5.616;2023-05-28T06:41:11;11.20;;;5.45;;
64543;SDS011;50936;51.660;5.616;2023-05-28T06:43:45;17.67;;;5.85;;
64543;SDS011;50936;51.660;5.616;2023-05-28T06:46:21;16.42;;;5.57;;
64543;SDS011;50936;51.660;5.616;2023-05-28T06:48:49;14.65;;;5.50;;
64543;SDS011;50936;51.660;5.616;2023-05-28T06:51:16;12.00;;;4.82;;
64543;SDS011;50936;51.660;5.616;2023-05-28T06:53:42;13.02;;;5.43;;
64543;SDS011;50936;51.660;5.616;2023-05-28T06:56:12;11.15;;;5.40;;
64543;SDS011;50936;51.660;5.616;2023-05-28T06:58:40;14.55;;;5.35;;
64543;SDS011;50936;51.660;5.616;2023-05-28T07:01:20;11.75;;;5.15;;
64543;SDS011;50936;51.660;5.616;2023-05-28T07:03:59;15.02;;;6.10;;
64543;SDS011;50936;51.660;5.616;2023-05-28T07:06:46;13.35;;;5.63;;
64543;SDS011;50936;51.660;5.616;2023-05-28T07:09:22;13.02;;;5.55;;
64543;SDS011;50936;51.660;5.616;2023-05-28T07:11:49;12.25;;;4.88;;
64543;SDS011;50936;51.660;5.616;2023-05-28T07:14:17;12.82;;;5.35;;
64543;SDS011;50936;51.660;5.616;2023-05-28T07:16:44;11.15;;;5.40;;
64543;SDS011;50936;51.660;5.616;2023-05-28T07:19:11;15.73;;;5.40;;
64543;SDS011;50936;51.660;5.616;2023-05-28T07:21:38;17.77;;;5.85;;
64543;SDS011;50936;51.660;5.616;2023-05-28T07:24:05;10.75;;;4.97;;
64543;SDS011;50936;51.660;5.616;2023-05-28T07:26:34;12.95;;;5.13;;
64543;SDS011;50936;51.660;5.616;2023-05-28T07:29:01;16.30;;;4.95;;
64543;SDS011;50936;51.660;5.616;2023-05-28T07:31:28;16.63;;;6.18;;
64543;SDS011;50936;51.660;5.616;2023-05-28T07:33:59;15.90;;;5.97;;
64543;SDS011;50936;51.660;5.616;2023-05-28T07:36:31;13.80;;;5.88;;
64543;SDS011;50936;51.660;5.616;2023-05-28T07:38:58;14.25;;;5.47;;
64543;SDS011;50936;51.660;5.616;2023-05-28T07:41:25;13.00;;;5.93;;
64543;SDS011;50936;51.660;5.616;2023-05-28T07:44:02;11.23;;;5.03;;
64543;SDS011;50936;51.660;5.616;2023-05-28T07:46:30;12.65;;;4.90;;
64543;SDS011;50936;51.660;5.616;2023-05-28T07:49:04;11.93;;;4.90;;
64543;SDS011;50936;51.660;5.616;2023-05-28T07:51:42;11.93;;;4.78;;
64543;SDS011;50936;51.660;5.616;2023-05-28T07:54:35;10.23;;;4.85;;
64543;SDS011;50936;51.660;5.616;2023-05-28T07:57:02;12.35;;;5.70;;
64543;SDS011;50936;51.660;5.616;2023-05-28T07:59:33;12.50;;;6.10;;
64543;SDS011;50936;51.660;5.616;2023-05-28T08:02:02;18.52;;;6.22;;
64543;SDS011;50936;51.660;5.616;2023-05-28T08:04:29;14.80;;;7.35;;
64543;SDS011;50936;51.660;5.616;2023-05-28T08:06:56;16.25;;;6.88;;
64543;SDS011;50936;51.660;5.616;2023-05-28T08:09:25;13.55;;;6.70;;
64543;SDS011;50936;51.660;5.616;2023-05-28T08:11:53;17.05;;;7.32;;
64543;SDS011;50936;51.660;5.616;2023-05-28T08:14:23;15.52;;;6.93;;
64543;SDS011;50936;51.660;5.616;2023-05-28T08:16:53;15.38;;;6.10;;
64543;SDS011;50936;51.660;5.616;2023-05-28T08:19:41;18.10;;;6.80;;
64543;SDS011;50936;51.660;5.616;2023-05-28T08:22:31;15.00;;;5.38;;
64543;SDS011;50936;51.660;5.616;2023-05-28T08:24:59;17.02;;;5.90;;
64543;SDS011;50936;51.660;5.616;2023-05-28T08:27:26;11.93;;;6.03;;
64543;SDS011;50936;51.660;5.616;2023-05-28T08:29:53;14.63;;;5.57;;
64543;SDS011;50936;51.660;5.616;2023-05-28T08:32:21;13.65;;;5.20;;
64543;SDS011;50936;51.660;5.616;2023-05-28T08:34:48;14.43;;;4.57;;
64543;SDS011;50936;51.660;5.616;2023-05-28T08:37:16;12.45;;;5.05;;
64543;SDS011;50936;51.660;5.616;2023-05-28T08:40:01;8.90;;;4.32;;
64543;SDS011;50936;51.660;5.616;2023-05-28T08:42:31;12.23;;;3.95;;
64543;SDS011;50936;51.660;5.616;2023-05-28T08:44:58;11.07;;;4.30;;
64543;SDS011;50936;51.660;5.616;2023-05-28T08:47:27;9.65;;;3.85;;
64543;SDS011;50936;51.660;5.616;2023-05-28T08:50:06;10.15;;;3.90;;
64543;SDS011;50936;51.660;5.616;2023-05-28T08:52:43;8.60;;;4.22;;
64543;SDS011;50936;51.660;5.616;2023-05-28T08:55:13;10.10;;;4.40;;
64543;SDS011;50936;51.660;5.616;2023-05-28T08:57:45;11.20;;;5.15;;
64543;SDS011;50936;51.660;5.616;2023-05-28T09:00:14;11.48;;;4.57;;
64543;SDS011;50936;51.660;5.616;2023-05-28T09:03:07;9.70;;;4.10;;
64543;SDS011;50936;51.660;5.616;2023-05-28T09:05:36;11.73;;;4.65;;
64543;SDS011;50936;51.660;5.616;2023-05-28T09:08:10;9.30;;;3.92;;
64543;SDS011;50936;51.660;5.616;2023-05-28T09:10:39;12.70;;;4.40;;
64543;SDS011;50936;51.660;5.616;2023-05-28T09:13:08;11.45;;;4.50;;
64543;SDS011;50936;51.660;5.616;2023-05-28T09:15:35;10.23;;;4.25;;
64543;SDS011;50936;51.660;5.616;2023-05-28T09:18:06;10.38;;;4.63;;
64543;SDS011;50936;51.660;5.616;2023-05-28T09:20:34;13.90;;;4.53;;
64543;SDS011;50936;51.660;5.616;2023-05-28T09:23:02;8.02;;;3.83;;
64543;SDS011;50936;51.660;5.616;2023-05-28T09:25:54;9.60;;;3.78;;
64543;SDS011;50936;51.660;5.616;2023-05-28T09:28:28;11.68;;;4.45;;
64543;SDS011;50936;51.660;5.616;2023-05-28T09:31:02;13.70;;;4.50;;
64543;SDS011;50936;51.660;5.616;2023-05-28T09:33:35;10.13;;;4.05;;
64543;SDS011;50936;51.660;5.616;2023-05-28T09:36:09;15.20;;;4.00;;
64543;SDS011;50936;51.660;5.616;2023-05-28T09:38:43;10.07;;;4.93;;
64543;SDS011;50936;51.660;5.616;2023-05-28T09:41:25;10.32;;;3.92;;
64543;SDS011;50936;51.660;5.616;2023-05-28T09:44:01;11.63;;;3.97;;
64543;SDS011;50936;51.660;5.616;2023-05-28T09:46:34;11.40;;;3.83;;
64543;SDS011;50936;51.660;5.616;2023-05-28T09:49:02;10.90;;;4.47;;
64543;SDS011;50936;51.660;5.616;2023-05-28T09:51:30;7.97;;;3.63;;
64543;SDS011;50936;51.660;5.616;2023-05-28T09:54:02;8.27;;;3.78;;
64543;SDS011;50936;51.660;5.616;2023-05-28T09:56:33;9.13;;;3.97;;
64543;SDS011;50936;51.660;5.616;2023-05-28T09:59:04;13.68;;;4.22;;
64543;SDS011;50936;51.660;5.616;2023-05-28T10:04:43;9.35;;;4.00;;
64543;SDS011;50936;51.660;5.616;2023-05-28T10:07:14;10.73;;;4.78;;
64543;SDS011;50936;51.660;5.616;2023-05-28T10:09:42;7.75;;;3.75;;
64543;SDS011;50936;51.660;5.616;2023-05-28T10:12:15;7.95;;;3.50;;
64543;SDS011;50936;51.660;5.616;2023-05-28T10:14:46;9.00;;;3.40;;
64543;SDS011;50936;51.660;5.616;2023-05-28T10:17:16;11.85;;;4.22;;
64543;SDS011;50936;51.660;5.616;2023-05-28T10:19:44;9.68;;;3.42;;
64543;SDS011;50936;51.660;5.616;2023-05-28T10:22:15;11.35;;;4.10;;
64543;SDS011;50936;51.660;5.616;2023-05-28T10:24:43;8.73;;;4.15;;
64543;SDS011;50936;51.660;5.616;2023-05-28T10:27:12;8.52;;;3.58;;
64543;SDS011;50936;51.660;5.616;2023-05-28T10:29:41;6.80;;;3.60;;
64543;SDS011;50936;51.660;5.616;2023-05-28T10:32:17;11.38;;;3.25;;
64543;SDS011;50936;51.660;5.616;2023-05-28T10:34:44;9.43;;;3.55;;
64543;SDS011;50936;51.660;5.616;2023-05-28T10:37:11;11.95;;;4.10;;
64543;SDS011;50936;51.660;5.616;2023-05-28T10:39:43;11.27;;;4.00;;
64543;SDS011;50936;51.660;5.616;2023-05-28T10:42:16;10.32;;;4.28;;
64543;SDS011;50936;51.660;5.616;2023-05-28T10:47:16;10.18;;;3.72;;
64543;SDS011;50936;51.660;5.616;2023-05-28T10:49:57;9.77;;;3.60;;
64543;SDS011;50936;51.660;5.616;2023-05-28T10:53:27;9.55;;;3.60;;
64543;SDS011;50936;51.660;5.616;2023-05-28T10:55:50;9.40;;;4.15;;
64543;SDS011;50936;51.660;5.616;2023-05-28T10:58:27;9.18;;;3.55;;
64543;SDS011;50936;51.660;5.616;2023-05-28T11:01:18;9.80;;;3.58;;
64543;SDS011;50936;51.660;5.616;2023-05-28T11:03:54;10.90;;;4.30;;
64543;SDS011;50936;51.660;5.616;2023-05-28T11:06:23;11.18;;;4.85;;
64543;SDS011;50936;51.660;5.616;2023-05-28T11:08:54;9.52;;;4.05;;
64543;SDS011;50936;51.660;5.616;2023-05-28T11:11:23;8.50;;;3.95;;
64543;SDS011;50936;51.660;5.616;2023-05-28T11:13:53;9.68;;;3.75;;
64543;SDS011;50936;51.660;5.616;2023-05-28T11:16:20;8.60;;;3.75;;
64543;SDS011;50936;51.660;5.616;2023-05-28T11:19:03;11.02;;;3.92;;
64543;SDS011;50936;51.660;5.616;2023-05-28T11:22:08;10.07;;;4.15;;
64543;SDS011;50936;51.660;5.616;2023-05-28T11:24:28;9.18;;;3.83;;
64543;SDS011;50936;51.660;5.616;2023-05-28T11:26:55;15.10;;;4.57;;
64543;SDS011;50936;51.660;5.616;2023-05-28T11:29:22;16.08;;;4.68;;
64543;SDS011;50936;51.660;5.616;2023-05-28T11:31:49;14.13;;;4.13;;
64543;SDS011;50936;51.660;5.616;2023-05-28T11:34:18;10.63;;;4.57;;
64543;SDS011;50936;51.660;5.616;2023-05-28T11:36:46;10.48;;;3.83;;
64543;SDS011;50936;51.660;5.616;2023-05-28T11:39:13;9.27;;;3.70;;
64543;SDS011;50936;51.660;5.616;2023-05-28T11:41:40;10.43;;;4.18;;
64543;SDS011;50936;51.660;5.616;2023-05-28T11:44:20;8.95;;;3.65;;
64543;SDS011;50936;51.660;5.616;2023-05-28T11:46:52;7.25;;;2.88;;
64543;SDS011;50936;51.660;5.616;2023-05-28T11:49:22;7.18;;;3.00;;
64543;SDS011;50936;51.660;5.616;2023-05-28T11:51:49;7.57;;;3.30;;
64543;SDS011;50936;51.660;5.616;2023-05-28T11:54:20;7.65;;;3.58;;
64543;SDS011;50936;51.660;5.616;2023-05-28T11:56:49;10.07;;;3.55;;
64543;SDS011;50936;51.660;5.616;2023-05-28T11:59:17;9.40;;;3.42;;
64543;SDS011;50936;51.660;5.616;2023-05-28T12:01:47;8.80;;;4.05;;
64543;SDS011;50936;51.660;5.616;2023-05-28T12:04:14;11.65;;;3.83;;
64543;SDS011;50936;51.660;5.616;2023-05-28T12:06:52;8.80;;;3.70;;
64543;SDS011;50936;51.660;5.616;2023-05-28T12:09:21;8.35;;;3.80;;
64543;SDS011;50936;51.660;5.616;2023-05-28T12:14:56;10.38;;;4.10;;
64543;SDS011;50936;51.660;5.616;2023-05-28T12:17:25;12.48;;;4.35;;
64543;SDS011;50936;51.660;5.616;2023-05-28T12:19:52;10.23;;;4.10;;
64543;SDS011;50936;51.660;5.616;2023-05-28T12:22:19;15.13;;;4.47;;
64543;SDS011;50936;51.660;5.616;2023-05-28T12:24:49;9.05;;;4.45;;
64543;SDS011;50936;51.660;5.616;2023-05-28T12:27:20;8.15;;;3.88;;
64543;SDS011;50936;51.660;5.616;2023-05-28T12:29:50;13.38;;;4.53;;
64543;SDS011;50936;51.660;5.616;2023-05-28T12:32:17;8.23;;;3.13;;
64543;SDS011;50936;51.660;5.616;2023-05-28T12:34:46;12.75;;;4.43;;
64543;SDS011;50936;51.660;5.616;2023-05-28T12:37:13;8.85;;;3.97;;
64543;SDS011;50936;51.660;5.616;2023-05-28T12:39:39;9.90;;;3.50;;
64543;SDS011;50936;51.660;5.616;2023-05-28T12:42:06;9.18;;;4.20;;
64543;SDS011;50936;51.660;5.616;2023-05-28T12:44:33;10.65;;;4.13;;
64543;SDS011;50936;51.660;5.616;2023-05-28T12:47:00;12.45;;;4.20;;
64543;SDS011;50936;51.660;5.616;2023-05-28T12:49:27;14.88;;;4.18;;
64543;SDS011;50936;51.660;5.616;2023-05-28T12:51:54;8.45;;;3.80;;
64543;SDS011;50936;51.660;5.616;2023-05-28T12:54:21;8.95;;;4.28;;
64543;SDS011;50936;51.660;5.616;2023-05-28T12:56:48;10.55;;;4.18;;
64543;SDS011;50936;51.660;5.616;2023-05-28T13:01:48;8.63;;;3.83;;
64543;SDS011;50936;51.660;5.616;2023-05-28T13:04:16;9.05;;;4.03;;
64543;SDS011;50936;51.660;5.616;2023-05-28T13:06:44;11.77;;;4.05;;
64543;SDS011;50936;51.660;5.616;2023-05-28T13:09:11;8.23;;;3.78;;
64543;SDS011;50936;51.660;5.616;2023-05-28T13:11:39;6.32;;;3.40;;
64543;SDS011;50936;51.660;5.616;2023-05-28T13:14:08;8.38;;;3.78;;
64543;SDS011;50936;51.660;5.616;2023-05-28T13:16:36;8.75;;;3.67;;
64543;SDS011;50936;51.660;5.616;2023-05-28T13:19:03;9.35;;;3.60;;
64543;SDS011;50936;51.660;5.616;2023-05-28T13:21:31;7.82;;;3.50;;
64543;SDS011;50936;51.660;5.616;2023-05-28T13:23:59;8.05;;;3.08;;
64543;SDS011;50936;51.660;5.616;2023-05-28T13:26:31;7.90;;;3.47;;
64543;SDS011;50936;51.660;5.616;2023-05-28T13:29:02;7.90;;;3.53;;
64543;SDS011;50936;51.660;5.616;2023-05-28T13:31:33;8.02;;;3.10;;
64543;SDS011;50936;51.660;5.616;2023-05-28T13:34:01;9.30;;;3.53;;
64543;SDS011;50936;51.660;5.616;2023-05-28T13:36:29;8.20;;;3.63;;
64543;SDS011;50936;51.660;5.616;2023-05-28T13:38:57;8.10;;;3.35;;
64543;SDS011;50936;51.660;5.616;2023-05-28T13:41:24;8.57;;;3.45;;
64543;SDS011;50936;51.660;5.616;2023-05-28T13:43:52;9.88;;;3.30;;
64543;SDS011;50936;51.660;5.616;2023-05-28T13:46:20;6.57;;;3.08;;
64543;SDS011;50936;51.660;5.616;2023-05-28T13:48:48;7.45;;;3.10;;
64543;SDS011;50936;51.660;5.616;2023-05-28T13:51:17;6.60;;;2.83;;
64543;SDS011;50936;51.660;5.616;2023-05-28T13:53:44;7.45;;;3.28;;
64543;SDS011;50936;51.660;5.616;2023-05-28T13:56:13;8.23;;;3.38;;
64543;SDS011;50936;51.660;5.616;2023-05-28T13:58:41;6.93;;;3.38;;
64543;SDS011;50936;51.660;5.616;2023-05-28T14:01:08;9.05;;;4.00;;
64543;SDS011;50936;51.660;5.616;2023-05-28T14:03:35;10.43;;;3.95;;
64543;SDS011;50936;51.660;5.616;2023-05-28T14:06:02;10.82;;;4.45;;
64543;SDS011;50936;51.660;5.616;2023-05-28T14:08:30;10.65;;;3.78;;
64543;SDS011;50936;51.660;5.616;2023-05-28T14:10:57;9.35;;;3.70;;
64543;SDS011;50936;51.660;5.616;2023-05-28T14:13:24;9.55;;;3.60;;
64543;SDS011;50936;51.660;5.616;2023-05-28T14:15:57;10.80;;;3.92;;
64543;SDS011;50936;51.660;5.616;2023-05-28T14:18:25;12.50;;;4.18;;
64543;SDS011;50936;51.660;5.616;2023-05-28T14:20:52;9.07;;;4.07;;
64543;SDS011;50936;51.660;5.616;2023-05-28T14:23:23;9.65;;;4.40;;
64543;SDS011;50936;51.660;5.616;2023-05-28T14:25:50;7.93;;;3.75;;
64543;SDS011;50936;51.660;5.616;2023-05-28T14:28:17;9.27;;;4.00;;
64543;SDS011;50936;51.660;5.616;2023-05-28T14:30:44;9.32;;;3.60;;
64543;SDS011;50936;51.660;5.616;2023-05-28T14:33:11;12.13;;;4.47;;
64543;SDS011;50936;51.660;5.616;2023-05-28T14:35:38;8.50;;;3.40;;
64543;SDS011;50936;51.660;5.616;2023-05-28T14:38:08;10.80;;;3.85;;
64543;SDS011;50936;51.660;5.616;2023-05-28T14:40:35;9.30;;;3.80;;
64543;SDS011;50936;51.660;5.616;2023-05-28T14:43:02;12.10;;;3.95;;
64543;SDS011;50936;51.660;5.616;2023-05-28T14:45:29;10.25;;;4.68;;
64543;SDS011;50936;51.660;5.616;2023-05-28T14:47:56;13.00;;;4.05;;
64543;SDS011;50936;51.660;5.616;2023-05-28T14:50:26;7.80;;;3.78;;
64543;SDS011;50936;51.660;5.616;2023-05-28T14:52:53;9.90;;;4.18;;
64543;SDS011;50936;51.660;5.616;2023-05-28T14:55:20;10.07;;;3.55;;
64543;SDS011;50936;51.660;5.616;2023-05-28T14:57:49;7.43;;;3.70;;
64543;SDS011;50936;51.660;5.616;2023-05-28T15:00:17;8.95;;;4.10;;
64543;SDS011;50936;51.660;5.616;2023-05-28T15:02:44;11.60;;;4.05;;
64543;SDS011;50936;51.660;5.616;2023-05-28T15:05:11;9.98;;;3.92;;